createdAt,value
2022-10-19T00:00:02.809Z,0
2022-10-19T00:05:03.225Z,0
2022-10-19T00:10:02.565Z,0
2022-10-19T00:15:03.435Z,0
2022-10-19T00:20:03.074Z,0
2022-10-19T00:25:02.900Z,0
2022-10-19T00:30:06.444Z,0
2022-10-19T00:35:03.528Z,0
2022-10-19T00:40:02.664Z,0
2022-10-19T00:45:03.336Z,0
2022-10-19T00:50:03.064Z,0
2022-10-19T00:55:04.013Z,0
2022-10-19T01:00:03.380Z,0
2022-10-19T01:05:02.965Z,0
2022-10-19T01:10:02.655Z,0
2022-10-19T01:15:03.360Z,0
2022-10-19T01:20:02.877Z,0
2022-10-19T01:25:02.720Z,0
2022-10-19T01:30:02.619Z,0
2022-10-19T01:35:03.237Z,0
2022-10-19T01:40:02.755Z,0
2022-10-19T01:45:02.738Z,0
2022-10-19T01:50:02.688Z,0
2022-10-19T01:55:04.703Z,0
2022-10-19T02:00:03.065Z,0
2022-10-19T02:05:02.700Z,0
2022-10-19T02:10:02.479Z,0
2022-10-19T02:15:03.051Z,0
2022-10-19T02:20:02.710Z,0
2022-10-19T02:25:02.630Z,0
2022-10-19T02:30:03.085Z,0
2022-10-19T02:35:02.873Z,0
2022-10-19T02:40:02.476Z,0
2022-10-19T02:45:03.176Z,0
2022-10-19T02:50:02.765Z,0
2022-10-19T02:55:04.153Z,0
2022-10-19T03:00:03.057Z,0
2022-10-19T03:05:02.699Z,0
2022-10-19T03:10:02.450Z,0
2022-10-19T03:15:03.006Z,0
2022-10-19T03:20:03.058Z,0
2022-10-19T03:25:02.706Z,0
2022-10-19T03:30:03.324Z,0
2022-10-19T03:35:02.872Z,0
2022-10-19T03:40:02.756Z,0
2022-10-19T03:45:02.554Z,0
2022-10-19T03:50:03.152Z,0
2022-10-19T03:55:04.152Z,0
2022-10-19T04:00:02.308Z,0
2022-10-19T04:05:03.071Z,0
2022-10-19T04:10:02.714Z,0
2022-10-19T04:15:02.447Z,0
2022-10-19T04:20:03.375Z,0
2022-10-19T04:25:02.403Z,0
2022-10-19T04:30:02.908Z,0
2022-10-19T04:35:02.517Z,0
2022-10-19T04:40:02.676Z,0
2022-10-19T04:45:03.285Z,0
2022-10-19T04:50:02.967Z,0
2022-10-19T04:55:03.768Z,0
2022-10-19T05:00:02.427Z,0
2022-10-19T05:05:03.074Z,0.34
2022-10-19T05:10:02.814Z,1.13
2022-10-19T05:15:02.510Z,2.83
2022-10-19T05:20:03.212Z,8.72
2022-10-19T05:25:02.842Z,10
2022-10-19T05:30:02.619Z,26.67
2022-10-19T05:35:03.177Z,46.67
2022-10-19T05:40:02.719Z,71.67
2022-10-19T05:45:02.387Z,86.67
2022-10-19T05:50:03.036Z,143.33
2022-10-19T05:55:04.365Z,181.67
2022-10-19T06:00:02.332Z,275
2022-10-19T06:05:03.032Z,370
2022-10-19T06:10:02.565Z,475
2022-10-19T06:15:03.244Z,580
2022-10-19T06:20:02.196Z,633.33
2022-10-19T06:25:02.940Z,663.33
2022-10-19T06:30:02.742Z,758.33
2022-10-19T06:35:02.568Z,681.67
2022-10-19T06:40:07.417Z,746.67
2022-10-19T06:45:03.338Z,968.33
2022-10-19T06:50:02.994Z,1106.67
2022-10-19T06:55:03.869Z,1321.67
2022-10-19T07:00:03.365Z,1238.33
2022-10-19T07:05:07.499Z,1208.33
2022-10-19T07:10:02.511Z,1211.67
2022-10-19T07:15:02.314Z,1263.33
2022-10-19T07:20:02.969Z,1600
2022-10-19T07:25:02.670Z,1641.67
2022-10-19T07:30:02.358Z,1788.33
2022-10-19T07:35:03.016Z,2030
2022-10-19T07:40:02.929Z,1905
2022-10-19T07:45:02.329Z,2201.67
2022-10-19T07:50:02.958Z,2200
2022-10-19T07:55:03.922Z,2330
2022-10-19T08:00:02.959Z,2400
2022-10-19T08:05:05.177Z,2826.67
2022-10-19T08:10:02.564Z,3226.67
2022-10-19T08:15:02.401Z,3380
2022-10-19T08:20:03.069Z,3480
2022-10-19T08:25:02.674Z,3476.67
2022-10-19T08:30:02.490Z,3510
2022-10-19T08:35:06.037Z,3758.33
2022-10-19T08:40:02.695Z,4120
2022-10-19T08:45:02.270Z,4395
2022-10-19T08:50:03.053Z,4310
2022-10-19T08:55:04.151Z,4331.67
2022-10-19T09:00:02.397Z,4808.33
2022-10-19T09:05:02.353Z,5128.33
2022-10-19T09:10:03.075Z,5391.67
2022-10-19T09:15:03.044Z,5903.33
2022-10-19T09:20:02.576Z,6350
2022-10-19T09:25:02.413Z,6468.33
2022-10-19T09:30:03.361Z,5735
2022-10-19T09:35:02.893Z,4915
2022-10-19T09:40:02.436Z,5016.67
2022-10-19T09:45:03.192Z,5160
2022-10-19T09:50:02.816Z,5068.33
2022-10-19T09:55:03.649Z,5431.67
2022-10-19T10:00:03.192Z,6636.67
2022-10-19T10:05:02.800Z,6905
2022-10-19T10:10:02.528Z,6321.67
2022-10-19T10:15:02.559Z,6546.67
2022-10-19T10:20:02.238Z,6145
2022-10-19T10:25:02.866Z,5836.67
2022-10-19T10:30:02.550Z,6383.33
2022-10-19T10:35:02.479Z,6928.33
2022-10-19T10:40:05.217Z,8003.33
2022-10-19T10:45:02.859Z,7675
2022-10-19T10:50:02.483Z,7615
2022-10-19T10:55:04.228Z,7086.67
2022-10-19T11:00:02.850Z,7498.33
2022-10-19T11:05:02.530Z,6918.33
2022-10-19T11:10:03.249Z,6621.67
2022-10-19T11:15:02.933Z,6295
2022-10-19T11:20:02.655Z,6128.33
2022-10-19T11:25:03.328Z,7206.67
2022-10-19T11:30:02.983Z,6800
2022-10-19T11:35:02.610Z,6958.33
2022-10-19T11:40:03.226Z,6945
2022-10-19T11:45:03.078Z,7100
2022-10-19T11:50:03.131Z,3863.33
2022-10-19T11:55:03.992Z,2830
2022-10-19T12:00:08.439Z,3388.33
2022-10-19T12:05:02.504Z,4183.33
2022-10-19T12:10:02.229Z,5223.33
2022-10-19T12:15:02.981Z,5308.33
2022-10-19T12:20:02.801Z,5085
2022-10-19T12:25:02.390Z,4953.33
2022-10-19T12:30:03.164Z,5248.33
2022-10-19T12:35:02.750Z,5281.67
2022-10-19T12:40:02.406Z,4266.67
2022-10-19T12:45:03.159Z,3161.67
2022-10-19T12:50:02.740Z,2700
2022-10-19T12:55:03.997Z,3275
2022-10-19T13:00:03.113Z,3976.67
2022-10-19T13:05:02.774Z,4358.33
2022-10-19T13:10:02.465Z,3930
2022-10-19T13:15:03.208Z,3513.33
2022-10-19T13:20:02.901Z,3590
2022-10-19T13:25:05.052Z,3956.67
2022-10-19T13:30:02.296Z,4338.33
2022-10-19T13:35:02.873Z,4763.33
2022-10-19T13:40:02.520Z,4923.33
2022-10-19T13:45:03.246Z,4665
2022-10-19T13:50:02.837Z,4320
2022-10-19T13:55:03.757Z,3488.33
2022-10-19T14:00:03.206Z,2870
2022-10-19T14:05:02.864Z,2346.67
2022-10-19T14:10:02.527Z,2210
2022-10-19T14:15:03.492Z,1453.33
2022-10-19T14:20:02.839Z,1445
2022-10-19T14:25:02.456Z,1701.67
2022-10-19T14:30:03.147Z,2083.33
2022-10-19T14:40:02.393Z,1858.33
2022-10-19T14:45:02.399Z,2090
2022-10-19T14:50:03.317Z,1911.67
2022-10-19T14:55:03.830Z,1613.33
2022-10-19T15:00:02.350Z,1425
2022-10-19T15:05:02.943Z,1325
2022-10-19T15:10:02.692Z,1280
2022-10-19T15:15:03.239Z,1151.67
2022-10-19T15:20:04.579Z,1050
2022-10-19T15:25:02.527Z,860
2022-10-19T15:30:03.208Z,795
2022-10-19T15:35:02.983Z,700
2022-10-19T15:40:02.617Z,608.33
2022-10-19T15:45:02.309Z,516.67
2022-10-19T15:50:03.018Z,420
2022-10-19T15:55:04.224Z,330
2022-10-19T16:00:03.241Z,238.33
2022-10-19T16:05:02.877Z,173.33
2022-10-19T16:10:02.545Z,115
2022-10-19T16:15:03.128Z,71.67
2022-10-19T16:20:03.165Z,41.67
2022-10-19T16:25:02.624Z,21.67
2022-10-19T16:30:02.298Z,8.33
2022-10-19T16:35:03.144Z,3.17
2022-10-19T16:40:02.886Z,1.13
2022-10-19T16:45:02.479Z,0.34
2022-10-19T16:50:03.195Z,0
2022-10-19T16:55:04.377Z,0
2022-10-19T17:00:02.410Z,0
2022-10-19T17:05:03.044Z,0
2022-10-19T17:10:02.731Z,0
2022-10-19T17:15:30.177Z,0
2022-10-19T17:20:02.236Z,0
2022-10-19T17:25:02.864Z,0
2022-10-19T17:30:02.513Z,0
2022-10-19T17:35:03.107Z,0
2022-10-19T17:40:02.949Z,0
2022-10-19T17:45:02.476Z,0
2022-10-19T17:50:02.368Z,0
2022-10-19T17:55:14.165Z,0
2022-10-19T18:00:02.671Z,0
2022-10-19T18:05:02.311Z,0
2022-10-19T18:10:03.195Z,0
2022-10-19T18:15:03.081Z,0
2022-10-19T18:20:02.608Z,0
2022-10-19T18:25:02.505Z,0
2022-10-19T18:30:03.200Z,0
2022-10-19T18:35:02.790Z,0
2022-10-19T18:40:02.476Z,0
2022-10-19T18:45:03.114Z,0
2022-10-19T18:50:03.642Z,0
2022-10-19T18:55:03.989Z,0
2022-10-19T19:00:02.709Z,0
2022-10-19T19:05:03.322Z,0
2022-10-19T19:10:03.059Z,0
2022-10-19T19:15:02.706Z,0
2022-10-19T19:20:02.367Z,0
2022-10-19T19:25:02.977Z,0
2022-10-19T19:30:02.822Z,0
2022-10-19T19:35:02.634Z,0
2022-10-19T19:40:03.330Z,0
2022-10-19T19:45:02.969Z,0
2022-10-19T19:50:02.539Z,0
2022-10-19T19:55:04.384Z,0
2022-10-19T20:00:02.821Z,0
2022-10-19T20:05:02.435Z,0
2022-10-19T20:10:03.072Z,0
2022-10-19T20:15:02.933Z,0
2022-10-19T20:20:02.771Z,0
2022-10-19T20:25:02.396Z,0
2022-10-19T20:30:03.059Z,0
2022-10-19T20:35:02.699Z,0
2022-10-19T20:40:07.431Z,0
2022-10-19T20:45:02.617Z,0
2022-10-19T20:55:04.222Z,0
2022-10-19T21:00:02.619Z,0
2022-10-19T21:05:02.541Z,0
2022-10-19T21:10:02.933Z,0
2022-10-19T21:15:02.589Z,0
2022-10-19T21:20:02.398Z,0
2022-10-19T21:25:03.076Z,0
2022-10-19T21:30:02.693Z,0
2022-10-19T21:35:02.350Z,0
2022-10-19T21:40:03.168Z,0
2022-10-19T21:45:18.189Z,0
2022-10-19T21:50:02.688Z,0
2022-10-19T21:55:03.803Z,0
2022-10-19T22:00:03.310Z,0
2022-10-19T22:05:02.758Z,0
2022-10-19T22:10:02.594Z,0
2022-10-19T22:15:02.358Z,0
2022-10-19T22:20:02.943Z,0
2022-10-19T22:25:02.555Z,0
2022-10-19T22:30:02.294Z,0
2022-10-19T22:35:02.878Z,0
2022-10-19T22:40:02.548Z,0
2022-10-19T22:45:02.295Z,0
2022-10-19T22:50:02.866Z,0
2022-10-19T22:55:03.694Z,0
2022-10-19T23:00:03.152Z,0
2022-10-19T23:05:02.758Z,0
2022-10-19T23:10:02.616Z,0
2022-10-19T23:15:02.708Z,0
2022-10-19T23:20:03.446Z,0
2022-10-19T23:25:03.051Z,0
2022-10-19T23:30:02.440Z,0
2022-10-19T23:35:03.084Z,0
2022-10-19T23:40:02.718Z,0
2022-10-19T23:45:02.388Z,0
2022-10-19T23:50:03.119Z,0
2022-10-19T23:55:04.405Z,0
